sensor_id;sensor_type;location;lat;lon;timestamp;pressure;altitude;pressure_sealevel;temperature;humidity
68793;BME280;55778;54.346;10.210;2022-08-04T00:02:26;101117.59;;;19.39;89.80
68793;BME280;55778;54.346;10.210;2022-08-04T00:04:54;101121.19;;;19.39;89.56
68793;BME280;55778;54.346;10.210;2022-08-04T00:10:04;101124.88;;;19.61;88.24
68793;BME280;55778;54.346;10.210;2022-08-04T00:12:32;101120.66;;;19.65;87.92
68793;BME280;55778;54.346;10.210;2022-08-04T00:15:00;101121.81;;;19.56;87.78
68793;BME280;55778;54.346;10.210;2022-08-04T00:18:04;101111.34;;;19.51;87.74
68793;BME280;55778;54.346;10.210;2022-08-04T00:20:33;101113.53;;;19.56;87.72
68793;BME280;55778;54.346;10.210;2022-08-04T00:23:00;101118.75;;;19.65;87.48
68793;BME280;55778;54.346;10.210;2022-08-04T00:25:27;101116.91;;;19.72;86.60
68793;BME280;55778;54.346;10.210;2022-08-04T00:27:54;101110.91;;;19.69;86.58
68793;BME280;55778;54.346;10.210;2022-08-04T00:30:19;101110.31;;;19.73;86.33
68793;BME280;55778;54.346;10.210;2022-08-04T00:32:45;101105.25;;;19.77;86.30
68793;BME280;55778;54.346;10.210;2022-08-04T00:35:14;101105.13;;;19.64;87.10
68793;BME280;55778;54.346;10.210;2022-08-04T00:37:43;101100.09;;;19.53;87.61
68793;BME280;55778;54.346;10.210;2022-08-04T00:43:14;101097.09;;;19.33;88.56
68793;BME280;55778;54.346;10.210;2022-08-04T00:51:41;101097.03;;;19.27;89.27
68793;BME280;55778;54.346;10.210;2022-08-04T00:54:28;101090.44;;;19.13;89.27
68793;BME280;55778;54.346;10.210;2022-08-04T00:59:50;101085.78;;;18.99;90.19
68793;BME280;55778;54.346;10.210;2022-08-04T01:05:33;101083.69;;;19.01;89.99
68793;BME280;55778;54.346;10.210;2022-08-04T01:08:27;101092.44;;;19.34;89.04
68793;BME280;55778;54.346;10.210;2022-08-04T01:11:03;101075.94;;;19.40;88.21
68793;BME280;55778;54.346;10.210;2022-08-04T01:14:14;101075.50;;;19.43;87.76
68793;BME280;55778;54.346;10.210;2022-08-04T01:16:24;101070.22;;;19.42;87.92
68793;BME280;55778;54.346;10.210;2022-08-04T01:19:04;101069.97;;;19.43;87.71
68793;BME280;55778;54.346;10.210;2022-08-04T01:29:21;101057.47;;;19.26;88.80
68793;BME280;55778;54.346;10.210;2022-08-04T01:34:29;101057.91;;;18.94;90.26
68793;BME280;55778;54.346;10.210;2022-08-04T01:37:31;101066.84;;;18.82;90.46
68793;BME280;55778;54.346;10.210;2022-08-04T01:40:02;101059.50;;;18.74;91.52
68793;BME280;55778;54.346;10.210;2022-08-04T01:42:31;101065.22;;;18.73;91.71
68793;BME280;55778;54.346;10.210;2022-08-04T01:44:59;101058.28;;;18.62;91.32
68793;BME280;55778;54.346;10.210;2022-08-04T01:47:29;101052.38;;;18.51;92.40
68793;BME280;55778;54.346;10.210;2022-08-04T01:50:03;101048.50;;;18.45;92.36
68793;BME280;55778;54.346;10.210;2022-08-04T01:52:31;101050.75;;;18.42;92.47
68793;BME280;55778;54.346;10.210;2022-08-04T01:55:00;101060.88;;;18.27;94.19
68793;BME280;55778;54.346;10.210;2022-08-04T01:57:26;101064.88;;;18.24;94.44
68793;BME280;55778;54.346;10.210;2022-08-04T01:59:53;101061.03;;;18.48;93.85
68793;BME280;55778;54.346;10.210;2022-08-04T02:02:21;101060.28;;;18.54;93.13
68793;BME280;55778;54.346;10.210;2022-08-04T02:04:48;101058.19;;;18.56;93.40
68793;BME280;55778;54.346;10.210;2022-08-04T02:10:06;101056.03;;;18.29;93.63
68793;BME280;55778;54.346;10.210;2022-08-04T02:12:54;101048.44;;;18.31;93.94
68793;BME280;55778;54.346;10.210;2022-08-04T02:15:35;101047.47;;;18.24;93.80
68793;BME280;55778;54.346;10.210;2022-08-04T02:18:15;101047.00;;;18.20;93.22
68793;BME280;55778;54.346;10.210;2022-08-04T02:20:45;101041.69;;;18.19;93.37
68793;BME280;55778;54.346;10.210;2022-08-04T02:23:14;101041.50;;;18.20;93.91
68793;BME280;55778;54.346;10.210;2022-08-04T02:25:55;101041.88;;;18.32;93.17
68793;BME280;55778;54.346;10.210;2022-08-04T02:33:36;101024.81;;;18.28;92.17
68793;BME280;55778;54.346;10.210;2022-08-04T02:36:02;101032.34;;;18.20;92.31
68793;BME280;55778;54.346;10.210;2022-08-04T02:41:00;101022.81;;;18.08;93.16
68793;BME280;55778;54.346;10.210;2022-08-04T02:43:26;101015.59;;;18.07;93.09
68793;BME280;55778;54.346;10.210;2022-08-04T02:45:55;101020.44;;;18.19;92.47
68793;BME280;55778;54.346;10.210;2022-08-04T02:48:23;101019.59;;;18.19;92.44
68793;BME280;55778;54.346;10.210;2022-08-04T02:50:50;101014.09;;;18.19;92.39
68793;BME280;55778;54.346;10.210;2022-08-04T02:53:17;101010.66;;;18.17;91.86
68793;BME280;55778;54.346;10.210;2022-08-04T02:55:50;101016.94;;;18.25;91.80
68793;BME280;55778;54.346;10.210;2022-08-04T02:58:19;101008.94;;;18.16;92.08
68793;BME280;55778;54.346;10.210;2022-08-04T03:00:44;101004.75;;;18.20;92.26
68793;BME280;55778;54.346;10.210;2022-08-04T03:03:50;101007.88;;;18.17;92.05
68793;BME280;55778;54.346;10.210;2022-08-04T03:06:32;100998.09;;;18.14;92.08
68793;BME280;55778;54.346;10.210;2022-08-04T03:18:09;100999.53;;;18.25;91.99
68793;BME280;55778;54.346;10.210;2022-08-04T03:20:44;100991.09;;;18.41;91.42
68793;BME280;55778;54.346;10.210;2022-08-04T03:23:33;100996.03;;;18.60;90.06
68793;BME280;55778;54.346;10.210;2022-08-04T03:31:46;101001.84;;;18.50;91.02
68793;BME280;55778;54.346;10.210;2022-08-04T03:51:31;100993.59;;;18.86;90.07
68793;BME280;55778;54.346;10.210;2022-08-04T04:00:05;100989.81;;;18.87;90.00
68793;BME280;55778;54.346;10.210;2022-08-04T04:03:08;100990.44;;;18.89;90.12
68793;BME280;55778;54.346;10.210;2022-08-04T04:09:00;100986.09;;;18.94;89.60
68793;BME280;55778;54.346;10.210;2022-08-04T04:25:28;100974.19;;;19.15;89.20
68793;BME280;55778;54.346;10.210;2022-08-04T04:30:46;100972.34;;;19.22;88.74
68793;BME280;55778;54.346;10.210;2022-08-04T04:33:25;100971.22;;;19.31;88.43
68793;BME280;55778;54.346;10.210;2022-08-04T04:41:30;100974.28;;;19.63;87.53
68793;BME280;55778;54.346;10.210;2022-08-04T04:44:13;100979.69;;;19.71;87.29
68793;BME280;55778;54.346;10.210;2022-08-04T04:46:49;100974.47;;;19.83;86.96
68793;BME280;55778;54.346;10.210;2022-08-04T04:49:27;100975.63;;;19.95;86.27
68793;BME280;55778;54.346;10.210;2022-08-04T04:52:29;100966.75;;;20.06;86.09
68793;BME280;55778;54.346;10.210;2022-08-04T04:55:17;100970.91;;;20.17;85.78
68793;BME280;55778;54.346;10.210;2022-08-04T04:57:44;100963.50;;;20.24;85.29
68793;BME280;55778;54.346;10.210;2022-08-04T05:00:11;100974.69;;;20.37;84.75
68793;BME280;55778;54.346;10.210;2022-08-04T05:13:58;100969.22;;;20.97;81.71
68793;BME280;55778;54.346;10.210;2022-08-04T05:16:31;100973.72;;;21.04;80.69
68793;BME280;55778;54.346;10.210;2022-08-04T05:19:20;100973.34;;;21.14;81.30
68793;BME280;55778;54.346;10.210;2022-08-04T05:21:52;100969.75;;;21.26;80.39
68793;BME280;55778;54.346;10.210;2022-08-04T05:24:22;100974.47;;;21.39;80.24
68793;BME280;55778;54.346;10.210;2022-08-04T05:26:55;100975.56;;;21.51;79.08
68793;BME280;55778;54.346;10.210;2022-08-04T05:29:31;100973.81;;;21.50;79.03
68793;BME280;55778;54.346;10.210;2022-08-04T05:32:01;100975.34;;;21.59;79.00
68793;BME280;55778;54.346;10.210;2022-08-04T05:34:35;100970.22;;;21.69;78.72
68793;BME280;55778;54.346;10.210;2022-08-04T05:37:07;100970.25;;;21.76;78.09
68793;BME280;55778;54.346;10.210;2022-08-04T05:39:44;100976.88;;;21.75;78.16
68793;BME280;55778;54.346;10.210;2022-08-04T05:42:10;100974.50;;;21.72;78.48
68793;BME280;55778;54.346;10.210;2022-08-04T05:44:37;100963.84;;;21.75;78.88
68793;BME280;55778;54.346;10.210;2022-08-04T05:47:04;100963.66;;;21.83;78.71
68793;BME280;55778;54.346;10.210;2022-08-04T05:49:31;100966.41;;;21.96;77.86
68793;BME280;55778;54.346;10.210;2022-08-04T05:52:00;100963.63;;;22.03;77.63
68793;BME280;55778;54.346;10.210;2022-08-04T05:54:27;100963.41;;;22.11;76.76
68793;BME280;55778;54.346;10.210;2022-08-04T05:56:53;100961.28;;;22.19;76.46
68793;BME280;55778;54.346;10.210;2022-08-04T05:59:21;100961.88;;;22.28;76.87
68793;BME280;55778;54.346;10.210;2022-08-04T06:01:50;100964.41;;;22.42;76.05
68793;BME280;55778;54.346;10.210;2022-08-04T06:04:17;100952.03;;;22.51;75.17
68793;BME280;55778;54.346;10.210;2022-08-04T06:06:44;100956.28;;;22.54;75.74
68793;BME280;55778;54.346;10.210;2022-08-04T06:09:11;100954.53;;;22.66;75.24
68793;BME280;55778;54.346;10.210;2022-08-04T06:11:37;100948.09;;;22.78;73.68
68793;BME280;55778;54.346;10.210;2022-08-04T06:14:06;100951.69;;;22.85;73.75
68793;BME280;55778;54.346;10.210;2022-08-04T06:16:38;100952.91;;;22.96;73.67
68793;BME280;55778;54.346;10.210;2022-08-04T06:19:09;100953.50;;;23.04;72.03
68793;BME280;55778;54.346;10.210;2022-08-04T06:21:42;100942.31;;;23.17;72.19
68793;BME280;55778;54.346;10.210;2022-08-04T06:24:12;100944.41;;;23.28;72.36
68793;BME280;55778;54.346;10.210;2022-08-04T06:26:39;100939.16;;;23.45;71.53
68793;BME280;55778;54.346;10.210;2022-08-04T06:29:05;100935.50;;;23.51;71.31
68793;BME280;55778;54.346;10.210;2022-08-04T06:31:40;100933.94;;;23.55;70.45
68793;BME280;55778;54.346;10.210;2022-08-04T06:34:13;100933.22;;;23.66;70.28
68793;BME280;55778;54.346;10.210;2022-08-04T06:36:44;100937.22;;;23.77;70.75
68793;BME280;55778;54.346;10.210;2022-08-04T06:39:12;100930.19;;;23.92;69.87
68793;BME280;55778;54.346;10.210;2022-08-04T06:41:38;100928.19;;;24.06;68.76
68793;BME280;55778;54.346;10.210;2022-08-04T06:44:06;100932.78;;;24.18;68.79
68793;BME280;55778;54.346;10.210;2022-08-04T06:46:34;100928.59;;;24.27;68.24
68793;BME280;55778;54.346;10.210;2022-08-04T06:49:03;100928.94;;;24.37;67.80
68793;BME280;55778;54.346;10.210;2022-08-04T06:51:29;100934.88;;;24.59;67.24
68793;BME280;55778;54.346;10.210;2022-08-04T06:53:56;100930.41;;;24.76;66.66
68793;BME280;55778;54.346;10.210;2022-08-04T06:56:21;100930.94;;;24.84;66.00
68793;BME280;55778;54.346;10.210;2022-08-04T06:58:51;100930.44;;;25.05;66.27
68793;BME280;55778;54.346;10.210;2022-08-04T07:01:19;100929.03;;;25.14;65.18
68793;BME280;55778;54.346;10.210;2022-08-04T07:03:46;100926.66;;;25.29;65.31
68793;BME280;55778;54.346;10.210;2022-08-04T07:06:13;100919.09;;;25.48;64.30
68793;BME280;55778;54.346;10.210;2022-08-04T07:08:38;100931.84;;;25.56;64.44
68793;BME280;55778;54.346;10.210;2022-08-04T07:11:04;100923.38;;;25.62;63.69
68793;BME280;55778;54.346;10.210;2022-08-04T07:13:31;100926.19;;;25.74;64.02
68793;BME280;55778;54.346;10.210;2022-08-04T07:15:57;100927.41;;;25.89;62.35
68793;BME280;55778;54.346;10.210;2022-08-04T07:18:24;100918.91;;;25.96;62.32
68793;BME280;55778;54.346;10.210;2022-08-04T07:20:50;100916.28;;;26.12;62.32
68793;BME280;55778;54.346;10.210;2022-08-04T07:23:22;100919.44;;;26.16;60.08
68793;BME280;55778;54.346;10.210;2022-08-04T07:25:52;100915.16;;;26.25;60.21
68793;BME280;55778;54.346;10.210;2022-08-04T07:28:19;100912.00;;;26.44;60.07
68793;BME280;55778;54.346;10.210;2022-08-04T07:30:47;100918.16;;;26.58;59.10
68793;BME280;55778;54.346;10.210;2022-08-04T07:33:15;100915.03;;;26.66;57.05
68793;BME280;55778;54.346;10.210;2022-08-04T07:35:40;100915.09;;;26.82;57.74
68793;BME280;55778;54.346;10.210;2022-08-04T07:38:06;100927.13;;;26.83;57.01
68793;BME280;55778;54.346;10.210;2022-08-04T07:40:33;100926.19;;;26.77;57.65
68793;BME280;55778;54.346;10.210;2022-08-04T07:43:01;100914.34;;;26.87;57.71
68793;BME280;55778;54.346;10.210;2022-08-04T07:45:27;100914.16;;;27.05;56.45
68793;BME280;55778;54.346;10.210;2022-08-04T07:47:55;100917.16;;;27.27;55.41
68793;BME280;55778;54.346;10.210;2022-08-04T07:50:21;100910.22;;;27.46;55.18
68793;BME280;55778;54.346;10.210;2022-08-04T07:52:49;100906.13;;;27.37;54.15
68793;BME280;55778;54.346;10.210;2022-08-04T07:55:15;100903.38;;;27.53;53.97
68793;BME280;55778;54.346;10.210;2022-08-04T07:57:42;100897.94;;;27.63;53.43
68793;BME280;55778;54.346;10.210;2022-08-04T08:00:09;100897.34;;;27.78;52.14
68793;BME280;55778;54.346;10.210;2022-08-04T08:02:35;100902.19;;;27.99;53.83
68793;BME280;55778;54.346;10.210;2022-08-04T08:05:01;100898.22;;;28.33;52.18
68793;BME280;55778;54.346;10.210;2022-08-04T08:07:27;100896.41;;;28.60;52.06
68793;BME280;55778;54.346;10.210;2022-08-04T08:09:52;100891.44;;;28.88;50.78
68793;BME280;55778;54.346;10.210;2022-08-04T08:12:18;100891.22;;;28.95;50.39
68793;BME280;55778;54.346;10.210;2022-08-04T08:14:44;100891.81;;;29.19;50.60
68793;BME280;55778;54.346;10.210;2022-08-04T08:17:10;100894.06;;;29.17;49.87
68793;BME280;55778;54.346;10.210;2022-08-04T08:19:35;100897.56;;;29.29;48.67
68793;BME280;55778;54.346;10.210;2022-08-04T08:22:02;100891.50;;;29.42;47.73
68793;BME280;55778;54.346;10.210;2022-08-04T08:24:29;100885.28;;;29.66;48.11
68793;BME280;55778;54.346;10.210;2022-08-04T08:26:55;100889.09;;;29.82;47.40
68793;BME280;55778;54.346;10.210;2022-08-04T08:29:21;100883.59;;;30.02;46.00
68793;BME280;55778;54.346;10.210;2022-08-04T08:31:47;100887.16;;;30.19;45.76
68793;BME280;55778;54.346;10.210;2022-08-04T08:34:13;100888.81;;;30.20;44.96
68793;BME280;55778;54.346;10.210;2022-08-04T08:36:56;100873.53;;;30.11;45.23
68793;BME280;55778;54.346;10.210;2022-08-04T08:39:29;100872.94;;;30.04;45.07
68793;BME280;55778;54.346;10.210;2022-08-04T08:56:11;100847.38;;;31.34;40.89
68793;BME280;55778;54.346;10.210;2022-08-04T09:09:50;100844.28;;;32.00;35.33
68793;BME280;55778;54.346;10.210;2022-08-04T09:15:46;100836.94;;;32.19;33.81
68793;BME280;55778;54.346;10.210;2022-08-04T09:18:33;100839.97;;;32.53;32.76
68793;BME280;55778;54.346;10.210;2022-08-04T09:21:10;100840.75;;;32.63;31.50
68793;BME280;55778;54.346;10.210;2022-08-04T09:24:05;100841.56;;;32.74;30.74
68793;BME280;55778;54.346;10.210;2022-08-04T09:26:45;100836.72;;;32.80;32.17
68793;BME280;55778;54.346;10.210;2022-08-04T09:29:18;100838.91;;;32.98;32.11
68793;BME280;55778;54.346;10.210;2022-08-04T09:31:53;100834.47;;;32.77;31.38
68793;BME280;55778;54.346;10.210;2022-08-04T09:40:23;100823.41;;;32.85;30.76
68793;BME280;55778;54.346;10.210;2022-08-04T09:46:32;100824.66;;;32.64;29.78
68793;BME280;55778;54.346;10.210;2022-08-04T09:49:04;100828.81;;;32.87;29.63
68793;BME280;55778;54.346;10.210;2022-08-04T10:00:01;100828.34;;;33.13;28.19
68793;BME280;55778;54.346;10.210;2022-08-04T10:02:29;100824.72;;;33.13;29.40
68793;BME280;55778;54.346;10.210;2022-08-04T10:04:57;100814.97;;;33.34;27.31
68793;BME280;55778;54.346;10.210;2022-08-04T10:07:28;100825.19;;;33.25;28.00
68793;BME280;55778;54.346;10.210;2022-08-04T10:10:16;100823.06;;;33.02;27.68
68793;BME280;55778;54.346;10.210;2022-08-04T10:15:41;100814.78;;;32.67;29.59
68793;BME280;55778;54.346;10.210;2022-08-04T10:20:53;100823.63;;;33.04;30.63
68793;BME280;55778;54.346;10.210;2022-08-04T10:23:30;100813.34;;;32.74;30.57
68793;BME280;55778;54.346;10.210;2022-08-04T10:28:55;100813.13;;;32.55;31.47
68793;BME280;55778;54.346;10.210;2022-08-04T10:31:29;100817.94;;;32.50;30.26
68793;BME280;55778;54.346;10.210;2022-08-04T10:36:38;100818.41;;;31.88;29.47
68793;BME280;55778;54.346;10.210;2022-08-04T10:39:12;100810.78;;;31.84;30.11
68793;BME280;55778;54.346;10.210;2022-08-04T10:44:19;100804.84;;;31.95;30.73
68793;BME280;55778;54.346;10.210;2022-08-04T10:46:53;100801.41;;;32.08;30.96
68793;BME280;55778;54.346;10.210;2022-08-04T10:49:34;100791.78;;;32.24;30.76
68793;BME280;55778;54.346;10.210;2022-08-04T10:52:12;100781.78;;;32.57;30.53
68793;BME280;55778;54.346;10.210;2022-08-04T10:57:45;100787.22;;;33.02;29.78
68793;BME280;55778;54.346;10.210;2022-08-04T11:00:18;100786.13;;;32.93;32.50
68793;BME280;55778;54.346;10.210;2022-08-04T11:02:58;100780.28;;;33.23;32.63
68793;BME280;55778;54.346;10.210;2022-08-04T11:05:30;100784.69;;;33.39;30.86
68793;BME280;55778;54.346;10.210;2022-08-04T11:08:04;100781.09;;;33.24;30.25
68793;BME280;55778;54.346;10.210;2022-08-04T11:10:42;100777.81;;;33.12;31.37
68793;BME280;55778;54.346;10.210;2022-08-04T11:13:10;100779.06;;;33.68;31.20
68793;BME280;55778;54.346;10.210;2022-08-04T11:15:42;100772.66;;;34.38;29.88
68793;BME280;55778;54.346;10.210;2022-08-04T11:18:13;100775.63;;;34.23;29.35
68793;BME280;55778;54.346;10.210;2022-08-04T11:21:30;100773.88;;;34.74;27.87
68793;BME280;55778;54.346;10.210;2022-08-04T11:23:36;100762.84;;;34.73;26.59
68793;BME280;55778;54.346;10.210;2022-08-04T11:26:18;100756.28;;;34.77;26.40
68793;BME280;55778;54.346;10.210;2022-08-04T11:31:17;100757.16;;;34.54;26.74
68793;BME280;55778;54.346;10.210;2022-08-04T11:36:29;100758.00;;;33.50;26.62
68793;BME280;55778;54.346;10.210;2022-08-04T11:41:57;100752.16;;;33.42;26.56
68793;BME280;55778;54.346;10.210;2022-08-04T11:44:29;100749.91;;;33.72;26.21
68793;BME280;55778;54.346;10.210;2022-08-04T11:47:02;100745.94;;;34.02;25.25
68793;BME280;55778;54.346;10.210;2022-08-04T11:49:41;100743.09;;;34.49;26.34
68793;BME280;55778;54.346;10.210;2022-08-04T11:52:08;100737.06;;;34.93;25.38
68793;BME280;55778;54.346;10.210;2022-08-04T11:54:37;100736.63;;;35.04;26.07
68793;BME280;55778;54.346;10.210;2022-08-04T11:57:04;100730.41;;;35.02;26.33
68793;BME280;55778;54.346;10.210;2022-08-04T11:59:32;100740.19;;;34.07;28.46
68793;BME280;55778;54.346;10.210;2022-08-04T12:04:52;100745.13;;;33.96;29.60
68793;BME280;55778;54.346;10.210;2022-08-04T12:10:50;100741.03;;;34.73;28.03
68793;BME280;55778;54.346;10.210;2022-08-04T12:13:35;100739.44;;;34.86;27.84
68793;BME280;55778;54.346;10.210;2022-08-04T12:16:19;100740.56;;;34.48;28.20
68793;BME280;55778;54.346;10.210;2022-08-04T12:18:56;100735.34;;;34.36;28.87
68793;BME280;55778;54.346;10.210;2022-08-04T12:24:01;100728.44;;;34.18;29.43
68793;BME280;55778;54.346;10.210;2022-08-04T12:26:31;100728.53;;;34.13;30.26
68793;BME280;55778;54.346;10.210;2022-08-04T12:29:00;100722.59;;;33.86;30.34
68793;BME280;55778;54.346;10.210;2022-08-04T12:31:30;100726.91;;;33.79;30.53
68793;BME280;55778;54.346;10.210;2022-08-04T12:34:07;100719.47;;;33.59;31.05
68793;BME280;55778;54.346;10.210;2022-08-04T12:36:46;100714.28;;;33.43;30.94
68793;BME280;55778;54.346;10.210;2022-08-04T12:39:16;100724.56;;;33.29;30.80
68793;BME280;55778;54.346;10.210;2022-08-04T12:44:22;100713.03;;;33.54;30.64
68793;BME280;55778;54.346;10.210;2022-08-04T12:46:49;100714.56;;;33.98;28.17
68793;BME280;55778;54.346;10.210;2022-08-04T12:49:16;100709.16;;;34.44;29.04
68793;BME280;55778;54.346;10.210;2022-08-04T12:51:43;100696.50;;;35.29;29.56
68793;BME280;55778;54.346;10.210;2022-08-04T12:54:10;100687.13;;;36.06;27.26
68793;BME280;55778;54.346;10.210;2022-08-04T12:56:37;100685.53;;;36.00;24.92
68793;BME280;55778;54.346;10.210;2022-08-04T12:59:07;100681.63;;;36.23;25.37
68793;BME280;55778;54.346;10.210;2022-08-04T13:01:34;100683.31;;;36.25;26.08
68793;BME280;55778;54.346;10.210;2022-08-04T13:04:09;100683.00;;;36.12;25.50
68793;BME280;55778;54.346;10.210;2022-08-04T13:06:36;100677.03;;;36.14;25.82
68793;BME280;55778;54.346;10.210;2022-08-04T13:09:06;100683.97;;;36.08;26.23
68793;BME280;55778;54.346;10.210;2022-08-04T13:11:44;100672.34;;;35.64;26.20
68793;BME280;55778;54.346;10.210;2022-08-04T13:14:11;100674.84;;;35.38;26.45
68793;BME280;55778;54.346;10.210;2022-08-04T13:16:39;100665.78;;;35.04;26.56
68793;BME280;55778;54.346;10.210;2022-08-04T13:19:07;100667.66;;;34.95;26.99
68793;BME280;55778;54.346;10.210;2022-08-04T13:21:34;100660.53;;;34.79;26.73
68793;BME280;55778;54.346;10.210;2022-08-04T13:24:08;100663.78;;;34.68;27.44
68793;BME280;55778;54.346;10.210;2022-08-04T13:26:34;100662.44;;;34.65;27.63
68793;BME280;55778;54.346;10.210;2022-08-04T13:29:04;100654.69;;;34.71;28.93
68793;BME280;55778;54.346;10.210;2022-08-04T13:31:31;100651.25;;;34.74;27.11
68793;BME280;55778;54.346;10.210;2022-08-04T13:34:05;100644.53;;;34.70;27.88
68793;BME280;55778;54.346;10.210;2022-08-04T13:36:33;100648.50;;;34.69;27.33
68793;BME280;55778;54.346;10.210;2022-08-04T13:39:08;100637.13;;;34.55;26.74
68793;BME280;55778;54.346;10.210;2022-08-04T13:41:38;100642.41;;;34.43;27.19
68793;BME280;55778;54.346;10.210;2022-08-04T13:44:08;100631.66;;;34.59;27.87
68793;BME280;55778;54.346;10.210;2022-08-04T13:47:00;100634.72;;;34.62;26.56
68793;BME280;55778;54.346;10.210;2022-08-04T13:49:27;100622.03;;;34.60;26.17
68793;BME280;55778;54.346;10.210;2022-08-04T13:51:57;100625.69;;;34.60;26.76
68793;BME280;55778;54.346;10.210;2022-08-04T13:54:23;100616.34;;;34.78;27.64
68793;BME280;55778;54.346;10.210;2022-08-04T13:56:52;100622.09;;;34.92;26.94
68793;BME280;55778;54.346;10.210;2022-08-04T13:59:24;100608.91;;;34.82;26.17
68793;BME280;55778;54.346;10.210;2022-08-04T14:01:58;100609.06;;;34.72;26.59
68793;BME280;55778;54.346;10.210;2022-08-04T14:04:26;100605.84;;;34.47;26.55
68793;BME280;55778;54.346;10.210;2022-08-04T14:07:05;100607.06;;;33.98;27.72
68793;BME280;55778;54.346;10.210;2022-08-04T14:09:37;100608.75;;;33.99;28.02
68793;BME280;55778;54.346;10.210;2022-08-04T14:12:07;100604.41;;;34.07;28.48
68793;BME280;55778;54.346;10.210;2022-08-04T14:14:35;100606.84;;;34.13;28.08
68793;BME280;55778;54.346;10.210;2022-08-04T14:17:06;100601.34;;;33.80;28.04
68793;BME280;55778;54.346;10.210;2022-08-04T14:19:54;100607.72;;;33.90;28.70
68793;BME280;55778;54.346;10.210;2022-08-04T14:27:43;100586.28;;;34.08;27.75
68793;BME280;55778;54.346;10.210;2022-08-04T14:33:13;100586.19;;;34.13;28.14
68793;BME280;55778;54.346;10.210;2022-08-04T14:35:39;100590.59;;;34.24;27.65
68793;BME280;55778;54.346;10.210;2022-08-04T14:38:08;100581.38;;;34.32;27.89
68793;BME280;55778;54.346;10.210;2022-08-04T14:40:39;100583.38;;;34.31;28.50
68793;BME280;55778;54.346;10.210;2022-08-04T14:43:05;100592.56;;;34.05;29.32
68793;BME280;55778;54.346;10.210;2022-08-04T14:45:38;100603.16;;;33.47;32.06
68793;BME280;55778;54.346;10.210;2022-08-04T14:48:12;100600.66;;;32.84;36.38
68793;BME280;55778;54.346;10.210;2022-08-04T14:50:43;100604.91;;;32.81;39.07
68793;BME280;55778;54.346;10.210;2022-08-04T14:53:11;100613.69;;;32.46;41.81
68793;BME280;55778;54.346;10.210;2022-08-04T14:55:39;100614.78;;;32.01;43.24
68793;BME280;55778;54.346;10.210;2022-08-04T14:58:05;100622.47;;;31.71;43.69
68793;BME280;55778;54.346;10.210;2022-08-04T15:00:32;100611.06;;;31.32;44.74
68793;BME280;55778;54.346;10.210;2022-08-04T15:03:08;100632.47;;;31.33;44.77
68793;BME280;55778;54.346;10.210;2022-08-04T15:05:44;100641.78;;;31.14;45.78
68793;BME280;55778;54.346;10.210;2022-08-04T15:08:12;100643.19;;;30.91;46.11
68793;BME280;55778;54.346;10.210;2022-08-04T15:10:39;100642.31;;;30.60;46.80
68793;BME280;55778;54.346;10.210;2022-08-04T15:13:05;100646.25;;;30.64;46.22
68793;BME280;55778;54.346;10.210;2022-08-04T15:15:32;100654.38;;;30.61;47.85
68793;BME280;55778;54.346;10.210;2022-08-04T15:17:57;100662.19;;;30.24;47.39
68793;BME280;55778;54.346;10.210;2022-08-04T15:20:23;100674.22;;;30.04;48.58
68793;BME280;55778;54.346;10.210;2022-08-04T15:22:49;100678.59;;;29.85;48.40
68793;BME280;55778;54.346;10.210;2022-08-04T15:25:15;100668.13;;;29.71;48.47
68793;BME280;55778;54.346;10.210;2022-08-04T15:27:41;100683.16;;;29.50;49.16
68793;BME280;55778;54.346;10.210;2022-08-04T15:30:12;100676.34;;;29.36;48.66
68793;BME280;55778;54.346;10.210;2022-08-04T15:32:50;100691.13;;;29.26;48.86
68793;BME280;55778;54.346;10.210;2022-08-04T15:35:19;100702.13;;;28.96;49.44
68793;BME280;55778;54.346;10.210;2022-08-04T15:40:47;100703.56;;;28.72;50.98
68793;BME280;55778;54.346;10.210;2022-08-04T15:46:06;100703.16;;;28.37;49.21
68793;BME280;55778;54.346;10.210;2022-08-04T15:48:31;100706.53;;;28.39;49.30
68793;BME280;55778;54.346;10.210;2022-08-04T15:53:23;100706.31;;;28.19;49.41
68793;BME280;55778;54.346;10.210;2022-08-04T15:55:49;100699.06;;;28.01;49.81
68793;BME280;55778;54.346;10.210;2022-08-04T15:58:15;100700.38;;;27.94;49.62
68793;BME280;55778;54.346;10.210;2022-08-04T16:16:44;100725.16;;;27.64;52.23
68793;BME280;55778;54.346;10.210;2022-08-04T16:22:00;100751.91;;;27.38;52.83
68793;BME280;55778;54.346;10.210;2022-08-04T16:24:39;100751.28;;;27.19;53.39
68793;BME280;55778;54.346;10.210;2022-08-04T16:27:10;100761.13;;;27.22;53.33
68793;BME280;55778;54.346;10.210;2022-08-04T16:29:39;100783.06;;;27.25;53.39
68793;BME280;55778;54.346;10.210;2022-08-04T16:34:33;100801.59;;;26.70;53.55
68793;BME280;55778;54.346;10.210;2022-08-04T16:37:05;100800.34;;;26.38;54.13
68793;BME280;55778;54.346;10.210;2022-08-04T16:39:32;100796.88;;;26.19;52.88
68793;BME280;55778;54.346;10.210;2022-08-04T16:41:58;100798.31;;;26.22;52.65
68793;BME280;55778;54.346;10.210;2022-08-04T16:44:30;100812.41;;;26.04;51.15
68793;BME280;55778;54.346;10.210;2022-08-04T16:47:00;100818.00;;;26.04;52.28
68793;BME280;55778;54.346;10.210;2022-08-04T16:49:26;100824.94;;;25.78;52.27
68793;BME280;55778;54.346;10.210;2022-08-04T16:51:53;100830.25;;;25.68;52.06
68793;BME280;55778;54.346;10.210;2022-08-04T16:54:20;100830.88;;;25.70;52.25
68793;BME280;55778;54.346;10.210;2022-08-04T16:56:46;100831.59;;;25.54;51.87